sensor_id;sensor_type;location;lat;lon;timestamp;P1;durP1;ratioP1;P2;durP2;ratioP2
68225;SDS011;55045;49.410;11.030;2024-01-25T00:01:03;23.90;;;11.75;;
68225;SDS011;55045;49.410;11.030;2024-01-25T00:04:07;21.17;;;11.95;;
68225;SDS011;55045;49.410;11.030;2024-01-25T00:07:12;20.30;;;11.70;;
68225;SDS011;55045;49.410;11.030;2024-01-25T00:10:17;16.52;;;11.80;;
68225;SDS011;55045;49.410;11.030;2024-01-25T00:13:21;16.17;;;11.50;;
68225;SDS011;55045;49.410;11.030;2024-01-25T00:16:32;25.33;;;12.43;;
68225;SDS011;55045;49.410;11.030;2024-01-25T00:19:35;22.23;;;12.85;;
68225;SDS011;55045;49.410;11.030;2024-01-25T00:22:41;25.13;;;11.85;;
68225;SDS011;55045;49.410;11.030;2024-01-25T00:25:44;20.10;;;11.95;;
68225;SDS011;55045;49.410;11.030;2024-01-25T00:28:48;21.08;;;12.70;;
68225;SDS011;55045;49.410;11.030;2024-01-25T00:31:52;23.08;;;11.23;;
68225;SDS011;55045;49.410;11.030;2024-01-25T00:34:56;26.73;;;12.30;;
68225;SDS011;55045;49.410;11.030;2024-01-25T00:38:02;20.27;;;12.52;;
68225;SDS011;55045;49.410;11.030;2024-01-25T00:41:06;23.17;;;11.60;;
68225;SDS011;55045;49.410;11.030;2024-01-25T00:44:12;16.50;;;12.10;;
68225;SDS011;55045;49.410;11.030;2024-01-25T00:47:17;21.02;;;11.50;;
68225;SDS011;55045;49.410;11.030;2024-01-25T00:50:22;22.45;;;12.60;;
68225;SDS011;55045;49.410;11.030;2024-01-25T00:53:31;22.20;;;12.65;;
68225;SDS011;55045;49.410;11.030;2024-01-25T00:56:37;28.60;;;12.07;;
68225;SDS011;55045;49.410;11.030;2024-01-25T00:59:41;19.38;;;10.80;;
68225;SDS011;55045;49.410;11.030;2024-01-25T01:02:45;22.65;;;10.55;;
68225;SDS011;55045;49.410;11.030;2024-01-25T01:05:49;17.08;;;11.63;;
68225;SDS011;55045;49.410;11.030;2024-01-25T01:08:56;25.55;;;11.85;;
68225;SDS011;55045;49.410;11.030;2024-01-25T01:11:59;24.35;;;12.15;;
68225;SDS011;55045;49.410;11.030;2024-01-25T01:15:04;22.63;;;12.07;;
68225;SDS011;55045;49.410;11.030;2024-01-25T01:18:08;21.42;;;12.98;;
68225;SDS011;55045;49.410;11.030;2024-01-25T01:21:12;28.77;;;12.60;;
68225;SDS011;55045;49.410;11.030;2024-01-25T01:24:17;21.63;;;11.48;;
68225;SDS011;55045;49.410;11.030;2024-01-25T01:27:21;22.55;;;12.48;;
68225;SDS011;55045;49.410;11.030;2024-01-25T01:30:25;18.58;;;11.00;;
68225;SDS011;55045;49.410;11.030;2024-01-25T01:33:29;23.55;;;11.18;;
68225;SDS011;55045;49.410;11.030;2024-01-25T01:36:34;21.92;;;10.65;;
68225;SDS011;55045;49.410;11.030;2024-01-25T01:39:39;21.10;;;11.30;;
68225;SDS011;55045;49.410;11.030;2024-01-25T01:42:43;22.55;;;10.50;;
68225;SDS011;55045;49.410;11.030;2024-01-25T01:45:47;19.90;;;10.57;;
68225;SDS011;55045;49.410;11.030;2024-01-25T01:48:53;29.42;;;12.32;;
68225;SDS011;55045;49.410;11.030;2024-01-25T01:51:58;16.95;;;10.90;;
68225;SDS011;55045;49.410;11.030;2024-01-25T01:55:04;25.15;;;10.70;;
68225;SDS011;55045;49.410;11.030;2024-01-25T01:58:09;18.48;;;10.43;;
68225;SDS011;55045;49.410;11.030;2024-01-25T02:01:37;25.38;;;11.20;;
68225;SDS011;55045;49.410;11.030;2024-01-25T02:05:06;22.50;;;10.75;;
68225;SDS011;55045;49.410;11.030;2024-01-25T02:08:10;30.98;;;10.73;;
68225;SDS011;55045;49.410;11.030;2024-01-25T02:11:16;19.55;;;11.77;;
68225;SDS011;55045;49.410;11.030;2024-01-25T02:14:20;14.88;;;11.10;;
68225;SDS011;55045;49.410;11.030;2024-01-25T02:17:24;24.70;;;12.98;;
68225;SDS011;55045;49.410;11.030;2024-01-25T02:20:33;20.63;;;11.60;;
68225;SDS011;55045;49.410;11.030;2024-01-25T02:23:38;25.80;;;12.38;;
68225;SDS011;55045;49.410;11.030;2024-01-25T02:26:45;21.23;;;11.75;;
68225;SDS011;55045;49.410;11.030;2024-01-25T02:29:49;18.58;;;10.93;;
68225;SDS011;55045;49.410;11.030;2024-01-25T02:32:54;19.20;;;11.02;;
68225;SDS011;55045;49.410;11.030;2024-01-25T02:35:58;21.13;;;11.63;;
68225;SDS011;55045;49.410;11.030;2024-01-25T02:39:03;19.80;;;10.15;;
68225;SDS011;55045;49.410;11.030;2024-01-25T02:42:08;24.13;;;11.10;;
68225;SDS011;55045;49.410;11.030;2024-01-25T02:45:12;18.13;;;10.32;;
68225;SDS011;55045;49.410;11.030;2024-01-25T02:48:16;22.27;;;10.02;;
68225;SDS011;55045;49.410;11.030;2024-01-25T02:51:20;21.15;;;8.40;;
68225;SDS011;55045;49.410;11.030;2024-01-25T02:54:26;16.98;;;8.77;;
68225;SDS011;55045;49.410;11.030;2024-01-25T02:57:30;20.77;;;9.20;;
68225;SDS011;55045;49.410;11.030;2024-01-25T03:00:34;22.92;;;9.48;;
68225;SDS011;55045;49.410;11.030;2024-01-25T03:03:38;15.00;;;9.70;;
68225;SDS011;55045;49.410;11.030;2024-01-25T03:06:42;20.77;;;10.77;;
68225;SDS011;55045;49.410;11.030;2024-01-25T03:09:47;21.35;;;10.63;;
68225;SDS011;55045;49.410;11.030;2024-01-25T03:12:51;24.55;;;9.75;;
68225;SDS011;55045;49.410;11.030;2024-01-25T03:15:56;21.27;;;10.40;;
68225;SDS011;55045;49.410;11.030;2024-01-25T03:19:00;19.73;;;9.40;;
68225;SDS011;55045;49.410;11.030;2024-01-25T03:22:04;17.70;;;9.77;;
68225;SDS011;55045;49.410;11.030;2024-01-25T03:25:11;19.90;;;9.38;;
68225;SDS011;55045;49.410;11.030;2024-01-25T03:28:15;18.77;;;10.02;;
68225;SDS011;55045;49.410;11.030;2024-01-25T03:31:20;25.17;;;10.25;;
68225;SDS011;55045;49.410;11.030;2024-01-25T03:34:24;24.65;;;10.00;;
68225;SDS011;55045;49.410;11.030;2024-01-25T03:37:28;16.55;;;9.40;;
68225;SDS011;55045;49.410;11.030;2024-01-25T03:40:34;22.88;;;10.10;;
68225;SDS011;55045;49.410;11.030;2024-01-25T03:43:38;20.67;;;9.80;;
68225;SDS011;55045;49.410;11.030;2024-01-25T03:46:46;19.23;;;9.45;;
68225;SDS011;55045;49.410;11.030;2024-01-25T03:49:49;21.40;;;10.30;;
68225;SDS011;55045;49.410;11.030;2024-01-25T03:52:53;24.23;;;9.23;;
68225;SDS011;55045;49.410;11.030;2024-01-25T03:55:59;15.02;;;9.27;;
68225;SDS011;55045;49.410;11.030;2024-01-25T03:59:02;21.65;;;9.68;;
68225;SDS011;55045;49.410;11.030;2024-01-25T04:02:07;22.30;;;10.00;;
68225;SDS011;55045;49.410;11.030;2024-01-25T04:05:12;24.17;;;11.27;;
68225;SDS011;55045;49.410;11.030;2024-01-25T04:08:17;19.20;;;9.50;;
68225;SDS011;55045;49.410;11.030;2024-01-25T04:11:22;19.30;;;10.38;;
68225;SDS011;55045;49.410;11.030;2024-01-25T04:14:28;26.85;;;10.95;;
68225;SDS011;55045;49.410;11.030;2024-01-25T04:17:32;22.38;;;9.38;;
68225;SDS011;55045;49.410;11.030;2024-01-25T04:20:36;18.52;;;9.88;;
68225;SDS011;55045;49.410;11.030;2024-01-25T04:23:40;21.27;;;9.35;;
68225;SDS011;55045;49.410;11.030;2024-01-25T04:26:45;23.13;;;10.30;;
68225;SDS011;55045;49.410;11.030;2024-01-25T04:29:48;18.65;;;9.32;;
68225;SDS011;55045;49.410;11.030;2024-01-25T04:34:54;20.20;;;9.70;;
68225;SDS011;55045;49.410;11.030;2024-01-25T04:37:58;24.17;;;9.90;;
68225;SDS011;55045;49.410;11.030;2024-01-25T04:41:02;18.45;;;10.32;;
68225;SDS011;55045;49.410;11.030;2024-01-25T04:44:05;17.02;;;10.60;;
68225;SDS011;55045;49.410;11.030;2024-01-25T04:47:09;18.90;;;10.98;;
68225;SDS011;55045;49.410;11.030;2024-01-25T04:50:15;28.00;;;12.35;;
68225;SDS011;55045;49.410;11.030;2024-01-25T04:53:19;20.58;;;10.75;;
68225;SDS011;55045;49.410;11.030;2024-01-25T04:56:23;30.00;;;11.93;;
68225;SDS011;55045;49.410;11.030;2024-01-25T04:59:27;17.42;;;11.30;;
68225;SDS011;55045;49.410;11.030;2024-01-25T05:02:32;23.25;;;11.23;;
68225;SDS011;55045;49.410;11.030;2024-01-25T05:05:38;22.60;;;11.63;;
68225;SDS011;55045;49.410;11.030;2024-01-25T05:08:42;22.17;;;11.80;;
68225;SDS011;55045;49.410;11.030;2024-01-25T05:11:46;20.50;;;12.60;;
68225;SDS011;55045;49.410;11.030;2024-01-25T05:14:50;19.25;;;11.93;;
68225;SDS011;55045;49.410;11.030;2024-01-25T05:17:55;24.95;;;12.20;;
68225;SDS011;55045;49.410;11.030;2024-01-25T05:21:00;22.02;;;12.20;;
68225;SDS011;55045;49.410;11.030;2024-01-25T05:24:04;18.27;;;11.43;;
68225;SDS011;55045;49.410;11.030;2024-01-25T05:27:10;22.30;;;12.60;;
68225;SDS011;55045;49.410;11.030;2024-01-25T05:30:14;18.33;;;12.00;;
68225;SDS011;55045;49.410;11.030;2024-01-25T05:33:21;23.35;;;12.93;;
68225;SDS011;55045;49.410;11.030;2024-01-25T05:36:26;25.55;;;13.73;;
68225;SDS011;55045;49.410;11.030;2024-01-25T05:39:31;19.77;;;13.38;;
68225;SDS011;55045;49.410;11.030;2024-01-25T05:42:35;19.08;;;13.10;;
68225;SDS011;55045;49.410;11.030;2024-01-25T05:45:40;23.67;;;13.63;;
68225;SDS011;55045;49.410;11.030;2024-01-25T05:48:44;23.48;;;12.85;;
68225;SDS011;55045;49.410;11.030;2024-01-25T05:51:49;23.27;;;12.25;;
68225;SDS011;55045;49.410;11.030;2024-01-25T05:54:52;20.73;;;14.20;;
68225;SDS011;55045;49.410;11.030;2024-01-25T05:57:58;20.30;;;12.63;;
68225;SDS011;55045;49.410;11.030;2024-01-25T06:01:04;18.80;;;12.48;;
68225;SDS011;55045;49.410;11.030;2024-01-25T06:04:08;31.25;;;14.02;;
68225;SDS011;55045;49.410;11.030;2024-01-25T06:07:15;24.67;;;12.98;;
68225;SDS011;55045;49.410;11.030;2024-01-25T06:10:19;24.50;;;13.63;;
68225;SDS011;55045;49.410;11.030;2024-01-25T06:13:25;22.95;;;13.70;;
68225;SDS011;55045;49.410;11.030;2024-01-25T06:16:29;26.00;;;13.18;;
68225;SDS011;55045;49.410;11.030;2024-01-25T06:19:33;20.90;;;13.77;;
68225;SDS011;55045;49.410;11.030;2024-01-25T06:22:40;22.08;;;13.30;;
68225;SDS011;55045;49.410;11.030;2024-01-25T06:25:44;23.75;;;14.30;;
68225;SDS011;55045;49.410;11.030;2024-01-25T06:28:48;22.00;;;14.82;;
68225;SDS011;55045;49.410;11.030;2024-01-25T06:31:53;23.23;;;14.18;;
68225;SDS011;55045;49.410;11.030;2024-01-25T06:34:58;22.70;;;15.38;;
68225;SDS011;55045;49.410;11.030;2024-01-25T06:38:04;26.52;;;14.98;;
68225;SDS011;55045;49.410;11.030;2024-01-25T06:41:08;38.38;;;16.40;;
68225;SDS011;55045;49.410;11.030;2024-01-25T06:44:12;27.83;;;15.13;;
68225;SDS011;55045;49.410;11.030;2024-01-25T06:47:16;23.33;;;15.05;;
68225;SDS011;55045;49.410;11.030;2024-01-25T06:53:29;28.52;;;15.60;;
68225;SDS011;55045;49.410;11.030;2024-01-25T06:56:34;29.23;;;15.48;;
68225;SDS011;55045;49.410;11.030;2024-01-25T06:59:38;32.47;;;15.95;;
68225;SDS011;55045;49.410;11.030;2024-01-25T07:02:42;31.67;;;14.77;;
68225;SDS011;55045;49.410;11.030;2024-01-25T07:05:47;39.40;;;15.63;;
68225;SDS011;55045;49.410;11.030;2024-01-25T07:08:52;30.02;;;15.63;;
68225;SDS011;55045;49.410;11.030;2024-01-25T07:11:56;27.77;;;15.77;;
68225;SDS011;55045;49.410;11.030;2024-01-25T07:15:02;29.45;;;15.15;;
68225;SDS011;55045;49.410;11.030;2024-01-25T07:18:06;33.35;;;15.18;;
68225;SDS011;55045;49.410;11.030;2024-01-25T07:21:10;23.35;;;15.00;;
68225;SDS011;55045;49.410;11.030;2024-01-25T07:24:15;25.77;;;15.43;;
68225;SDS011;55045;49.410;11.030;2024-01-25T07:27:19;23.08;;;14.52;;
68225;SDS011;55045;49.410;11.030;2024-01-25T07:30:24;32.13;;;15.32;;
68225;SDS011;55045;49.410;11.030;2024-01-25T07:33:28;20.30;;;13.18;;
68225;SDS011;55045;49.410;11.030;2024-01-25T07:36:31;24.55;;;15.18;;
68225;SDS011;55045;49.410;11.030;2024-01-25T07:39:36;28.33;;;15.55;;
68225;SDS011;55045;49.410;11.030;2024-01-25T07:42:41;21.20;;;14.55;;
68225;SDS011;55045;49.410;11.030;2024-01-25T07:45:45;26.70;;;14.82;;
68225;SDS011;55045;49.410;11.030;2024-01-25T07:48:49;25.95;;;14.75;;
68225;SDS011;55045;49.410;11.030;2024-01-25T07:51:53;27.63;;;14.68;;
68225;SDS011;55045;49.410;11.030;2024-01-25T07:55:00;25.33;;;15.10;;
68225;SDS011;55045;49.410;11.030;2024-01-25T07:58:07;24.02;;;13.65;;
68225;SDS011;55045;49.410;11.030;2024-01-25T08:01:10;33.03;;;15.05;;
68225;SDS011;55045;49.410;11.030;2024-01-25T08:04:17;25.92;;;13.80;;
68225;SDS011;55045;49.410;11.030;2024-01-25T08:07:21;28.00;;;14.25;;
68225;SDS011;55045;49.410;11.030;2024-01-25T08:10:26;24.77;;;14.27;;
68225;SDS011;55045;49.410;11.030;2024-01-25T08:13:31;24.10;;;13.20;;
68225;SDS011;55045;49.410;11.030;2024-01-25T08:16:37;23.42;;;13.68;;
68225;SDS011;55045;49.410;11.030;2024-01-25T08:19:40;27.70;;;13.35;;
68225;SDS011;55045;49.410;11.030;2024-01-25T08:22:44;24.20;;;13.10;;
68225;SDS011;55045;49.410;11.030;2024-01-25T08:25:50;17.58;;;12.38;;
68225;SDS011;55045;49.410;11.030;2024-01-25T08:28:53;28.02;;;13.38;;
68225;SDS011;55045;49.410;11.030;2024-01-25T08:31:58;23.15;;;13.20;;
68225;SDS011;55045;49.410;11.030;2024-01-25T08:35:02;24.48;;;12.07;;
68225;SDS011;55045;49.410;11.030;2024-01-25T08:38:06;21.02;;;12.45;;
68225;SDS011;55045;49.410;11.030;2024-01-25T08:41:12;23.75;;;12.38;;
68225;SDS011;55045;49.410;11.030;2024-01-25T08:44:17;27.98;;;13.43;;
68225;SDS011;55045;49.410;11.030;2024-01-25T08:47:22;21.92;;;12.05;;
68225;SDS011;55045;49.410;11.030;2024-01-25T08:50:34;22.33;;;11.13;;
68225;SDS011;55045;49.410;11.030;2024-01-25T08:53:38;24.42;;;11.93;;
68225;SDS011;55045;49.410;11.030;2024-01-25T08:56:44;24.33;;;11.40;;
68225;SDS011;55045;49.410;11.030;2024-01-25T08:59:48;25.15;;;12.30;;
68225;SDS011;55045;49.410;11.030;2024-01-25T09:02:53;20.15;;;11.52;;
68225;SDS011;55045;49.410;11.030;2024-01-25T09:05:56;22.58;;;11.43;;
68225;SDS011;55045;49.410;11.030;2024-01-25T09:09:01;18.73;;;11.30;;
68225;SDS011;55045;49.410;11.030;2024-01-25T09:12:07;23.67;;;10.48;;
68225;SDS011;55045;49.410;11.030;2024-01-25T09:15:13;23.83;;;10.52;;
68225;SDS011;55045;49.410;11.030;2024-01-25T09:18:17;23.23;;;10.82;;
68225;SDS011;55045;49.410;11.030;2024-01-25T09:21:22;20.63;;;12.00;;
68225;SDS011;55045;49.410;11.030;2024-01-25T09:24:27;26.83;;;11.48;;
68225;SDS011;55045;49.410;11.030;2024-01-25T09:27:33;20.10;;;9.65;;
68225;SDS011;55045;49.410;11.030;2024-01-25T09:30:37;23.55;;;10.10;;
68225;SDS011;55045;49.410;11.030;2024-01-25T09:33:42;23.88;;;9.68;;
68225;SDS011;55045;49.410;11.030;2024-01-25T09:36:47;21.50;;;9.32;;
68225;SDS011;55045;49.410;11.030;2024-01-25T09:39:52;21.88;;;8.98;;
68225;SDS011;55045;49.410;11.030;2024-01-25T09:42:57;21.85;;;10.65;;
68225;SDS011;55045;49.410;11.030;2024-01-25T09:46:01;24.83;;;10.00;;
68225;SDS011;55045;49.410;11.030;2024-01-25T09:49:06;26.02;;;10.07;;
68225;SDS011;55045;49.410;11.030;2024-01-25T09:52:11;18.42;;;8.52;;
68225;SDS011;55045;49.410;11.030;2024-01-25T09:55:16;18.92;;;8.13;;
68225;SDS011;55045;49.410;11.030;2024-01-25T09:58:23;28.83;;;9.52;;
68225;SDS011;55045;49.410;11.030;2024-01-25T10:01:32;25.98;;;7.57;;
68225;SDS011;55045;49.410;11.030;2024-01-25T10:04:36;22.20;;;8.40;;
68225;SDS011;55045;49.410;11.030;2024-01-25T10:07:42;19.27;;;7.68;;
68225;SDS011;55045;49.410;11.030;2024-01-25T10:10:46;17.90;;;7.53;;
68225;SDS011;55045;49.410;11.030;2024-01-25T10:13:51;22.98;;;7.03;;
68225;SDS011;55045;49.410;11.030;2024-01-25T10:16:57;14.00;;;6.07;;
68225;SDS011;55045;49.410;11.030;2024-01-25T10:20:04;16.88;;;5.53;;
68225;SDS011;55045;49.410;11.030;2024-01-25T10:23:13;13.20;;;5.00;;
68225;SDS011;55045;49.410;11.030;2024-01-25T10:26:20;20.20;;;5.47;;
68225;SDS011;55045;49.410;11.030;2024-01-25T10:29:26;16.85;;;5.40;;
68225;SDS011;55045;49.410;11.030;2024-01-25T10:34:53;19.80;;;5.30;;
68225;SDS011;55045;49.410;11.030;2024-01-25T10:37:57;11.05;;;4.70;;
68225;SDS011;55045;49.410;11.030;2024-01-25T10:41:02;18.60;;;4.88;;
68225;SDS011;55045;49.410;11.030;2024-01-25T10:44:08;14.80;;;4.50;;
68225;SDS011;55045;49.410;11.030;2024-01-25T10:47:12;14.18;;;3.88;;
68225;SDS011;55045;49.410;11.030;2024-01-25T10:50:18;13.82;;;4.35;;
68225;SDS011;55045;49.410;11.030;2024-01-25T10:56:30;17.52;;;4.85;;
68225;SDS011;55045;49.410;11.030;2024-01-25T10:59:34;20.67;;;5.28;;
68225;SDS011;55045;49.410;11.030;2024-01-25T11:02:39;20.85;;;5.78;;
68225;SDS011;55045;49.410;11.030;2024-01-25T11:05:44;19.42;;;5.68;;
68225;SDS011;55045;49.410;11.030;2024-01-25T11:08:49;21.95;;;5.85;;
68225;SDS011;55045;49.410;11.030;2024-01-25T11:11:54;20.02;;;5.25;;
68225;SDS011;55045;49.410;11.030;2024-01-25T11:14:58;18.35;;;5.22;;
68225;SDS011;55045;49.410;11.030;2024-01-25T11:18:02;19.10;;;5.13;;
68225;SDS011;55045;49.410;11.030;2024-01-25T11:21:12;17.42;;;4.07;;
68225;SDS011;55045;49.410;11.030;2024-01-25T11:24:25;20.05;;;4.53;;
68225;SDS011;55045;49.410;11.030;2024-01-25T11:27:29;16.40;;;4.65;;
68225;SDS011;55045;49.410;11.030;2024-01-25T11:30:34;18.10;;;4.53;;
68225;SDS011;55045;49.410;11.030;2024-01-25T11:33:39;17.95;;;4.78;;
68225;SDS011;55045;49.410;11.030;2024-01-25T11:36:46;14.23;;;5.15;;
68225;SDS011;55045;49.410;11.030;2024-01-25T11:39:50;18.20;;;5.40;;
68225;SDS011;55045;49.410;11.030;2024-01-25T11:42:55;19.80;;;5.63;;
68225;SDS011;55045;49.410;11.030;2024-01-25T11:47:06;19.90;;;5.03;;
68225;SDS011;55045;49.410;11.030;2024-01-25T11:51:21;15.85;;;4.80;;
68225;SDS011;55045;49.410;11.030;2024-01-25T11:59:24;20.17;;;4.90;;
68225;SDS011;55045;49.410;11.030;2024-01-25T12:03:21;18.13;;;4.90;;
68225;SDS011;55045;49.410;11.030;2024-01-25T12:06:25;12.75;;;4.07;;
68225;SDS011;55045;49.410;11.030;2024-01-25T12:09:31;16.30;;;3.78;;
68225;SDS011;55045;49.410;11.030;2024-01-25T12:12:36;16.30;;;4.40;;
68225;SDS011;55045;49.410;11.030;2024-01-25T12:15:40;19.83;;;5.05;;
68225;SDS011;55045;49.410;11.030;2024-01-25T12:18:44;15.25;;;5.00;;
68225;SDS011;55045;49.410;11.030;2024-01-25T12:21:49;13.82;;;4.03;;
68225;SDS011;55045;49.410;11.030;2024-01-25T12:25:32;14.65;;;4.38;;
68225;SDS011;55045;49.410;11.030;2024-01-25T12:37:34;19.30;;;4.53;;
68225;SDS011;55045;49.410;11.030;2024-01-25T12:40:37;16.08;;;3.60;;
68225;SDS011;55045;49.410;11.030;2024-01-25T12:43:41;16.05;;;4.10;;
68225;SDS011;55045;49.410;11.030;2024-01-25T12:46:46;15.32;;;4.22;;
68225;SDS011;55045;49.410;11.030;2024-01-25T12:49:50;17.15;;;4.95;;
68225;SDS011;55045;49.410;11.030;2024-01-25T12:52:54;19.27;;;4.55;;
68225;SDS011;55045;49.410;11.030;2024-01-25T12:55:58;18.73;;;4.65;;
68225;SDS011;55045;49.410;11.030;2024-01-25T12:59:01;23.83;;;5.30;;
68225;SDS011;55045;49.410;11.030;2024-01-25T13:02:07;13.35;;;4.57;;
68225;SDS011;55045;49.410;11.030;2024-01-25T13:05:11;21.38;;;4.28;;
68225;SDS011;55045;49.410;11.030;2024-01-25T13:08:15;14.75;;;4.57;;
68225;SDS011;55045;49.410;11.030;2024-01-25T13:11:19;19.02;;;3.95;;
68225;SDS011;55045;49.410;11.030;2024-01-25T13:14:23;12.43;;;4.00;;
68225;SDS011;55045;49.410;11.030;2024-01-25T13:17:29;15.38;;;4.07;;
68225;SDS011;55045;49.410;11.030;2024-01-25T13:20:35;18.30;;;4.40;;
68225;SDS011;55045;49.410;11.030;2024-01-25T13:23:38;16.13;;;4.32;;
68225;SDS011;55045;49.410;11.030;2024-01-25T13:26:42;15.18;;;3.70;;
68225;SDS011;55045;49.410;11.030;2024-01-25T13:29:46;14.90;;;3.65;;
68225;SDS011;55045;49.410;11.030;2024-01-25T13:32:51;19.85;;;3.92;;
68225;SDS011;55045;49.410;11.030;2024-01-25T13:35:55;15.57;;;3.72;;
68225;SDS011;55045;49.410;11.030;2024-01-25T13:38:59;17.45;;;4.25;;
68225;SDS011;55045;49.410;11.030;2024-01-25T13:42:04;25.70;;;4.65;;
68225;SDS011;55045;49.410;11.030;2024-01-25T13:49:11;16.88;;;4.38;;
68225;SDS011;55045;49.410;11.030;2024-01-25T13:53:02;19.13;;;4.85;;
68225;SDS011;55045;49.410;11.030;2024-01-25T13:56:40;17.65;;;4.13;;
68225;SDS011;55045;49.410;11.030;2024-01-25T14:00:33;14.02;;;4.28;;
68225;SDS011;55045;49.410;11.030;2024-01-25T14:04:20;14.10;;;4.60;;
68225;SDS011;55045;49.410;11.030;2024-01-25T14:07:45;15.55;;;4.43;;
68225;SDS011;55045;49.410;11.030;2024-01-25T14:11:26;17.23;;;4.80;;
68225;SDS011;55045;49.410;11.030;2024-01-25T14:15:17;19.30;;;4.90;;
68225;SDS011;55045;49.410;11.030;2024-01-25T14:18:56;17.33;;;4.60;;
68225;SDS011;55045;49.410;11.030;2024-01-25T14:22:42;16.58;;;5.20;;
68225;SDS011;55045;49.410;11.030;2024-01-25T14:30:20;19.85;;;4.90;;
68225;SDS011;55045;49.410;11.030;2024-01-25T14:34:20;16.27;;;5.30;;
68225;SDS011;55045;49.410;11.030;2024-01-25T14:37:45;16.27;;;4.90;;
68225;SDS011;55045;49.410;11.030;2024-01-25T14:41:41;14.52;;;5.22;;
68225;SDS011;55045;49.410;11.030;2024-01-25T14:45:17;16.92;;;5.15;;
68225;SDS011;55045;49.410;11.030;2024-01-25T14:49:31;19.55;;;5.55;;
68225;SDS011;55045;49.410;11.030;2024-01-25T14:53:10;18.90;;;4.65;;
68225;SDS011;55045;49.410;11.030;2024-01-25T14:56:48;13.73;;;5.63;;
68225;SDS011;55045;49.410;11.030;2024-01-25T15:00:03;16.08;;;5.05;;
68225;SDS011;55045;49.410;11.030;2024-01-25T15:04:13;16.65;;;5.00;;
68225;SDS011;55045;49.410;11.030;2024-01-25T15:08:12;20.50;;;4.85;;
68225;SDS011;55045;49.410;11.030;2024-01-25T15:12:40;17.95;;;5.43;;
68225;SDS011;55045;49.410;11.030;2024-01-25T15:16:37;17.77;;;5.07;;
68225;SDS011;55045;49.410;11.030;2024-01-25T15:20:05;23.92;;;6.45;;
68225;SDS011;55045;49.410;11.030;2024-01-25T15:23:41;17.63;;;5.30;;
68225;SDS011;55045;49.410;11.030;2024-01-25T15:27:11;15.32;;;5.57;;
68225;SDS011;55045;49.410;11.030;2024-01-25T15:31:10;17.95;;;6.07;;
68225;SDS011;55045;49.410;11.030;2024-01-25T15:35:24;16.23;;;6.40;;
68225;SDS011;55045;49.410;11.030;2024-01-25T15:39:06;19.88;;;7.38;;
68225;SDS011;55045;49.410;11.030;2024-01-25T15:47:19;19.05;;;7.68;;
68225;SDS011;55045;49.410;11.030;2024-01-25T15:50:40;16.80;;;9.00;;
68225;SDS011;55045;49.410;11.030;2024-01-25T15:54:49;23.17;;;9.07;;
68225;SDS011;55045;49.410;11.030;2024-01-25T15:58:49;20.10;;;9.40;;
68225;SDS011;55045;49.410;11.030;2024-01-25T16:02:23;20.13;;;10.65;;
68225;SDS011;55045;49.410;11.030;2024-01-25T16:05:59;21.52;;;10.70;;
68225;SDS011;55045;49.410;11.030;2024-01-25T16:09:15;22.23;;;10.40;;
68225;SDS011;55045;49.410;11.030;2024-01-25T16:12:31;17.63;;;12.98;;
68225;SDS011;55045;49.410;11.030;2024-01-25T16:15:53;26.33;;;11.90;;
68225;SDS011;55045;49.410;11.030;2024-01-25T16:18:57;23.42;;;13.70;;
68225;SDS011;55045;49.410;11.030;2024-01-25T16:22:04;31.15;;;13.13;;
68225;SDS011;55045;49.410;11.030;2024-01-25T16:25:07;21.20;;;12.63;;
68225;SDS011;55045;49.410;11.030;2024-01-25T16:28:13;23.77;;;12.35;;
68225;SDS011;55045;49.410;11.030;2024-01-25T16:34:53;21.67;;;14.85;;
68225;SDS011;55045;49.410;11.030;2024-01-25T16:37:56;23.17;;;15.45;;
68225;SDS011;55045;49.410;11.030;2024-01-25T16:41:00;38.78;;;16.00;;
68225;SDS011;55045;49.410;11.030;2024-01-25T16:44:04;25.00;;;14.93;;
68225;SDS011;55045;49.410;11.030;2024-01-25T16:47:08;23.92;;;15.82;;
68225;SDS011;55045;49.410;11.030;2024-01-25T16:50:13;21.38;;;15.15;;
68225;SDS011;55045;49.410;11.030;2024-01-25T16:53:17;23.73;;;14.32;;
68225;SDS011;55045;49.410;11.030;2024-01-25T16:56:21;27.00;;;16.90;;
68225;SDS011;55045;49.410;11.030;2024-01-25T16:59:26;26.77;;;17.25;;
68225;SDS011;55045;49.410;11.030;2024-01-25T17:02:33;29.63;;;17.30;;
68225;SDS011;55045;49.410;11.030;2024-01-25T17:05:38;31.50;;;18.42;;
68225;SDS011;55045;49.410;11.030;2024-01-25T17:08:42;26.80;;;17.83;;
68225;SDS011;55045;49.410;11.030;2024-01-25T17:11:46;29.70;;;18.70;;
68225;SDS011;55045;49.410;11.030;2024-01-25T17:14:50;35.95;;;20.60;;
68225;SDS011;55045;49.410;11.030;2024-01-25T17:17:53;31.80;;;19.90;;
68225;SDS011;55045;49.410;11.030;2024-01-25T17:21:00;33.00;;;20.25;;
68225;SDS011;55045;49.410;11.030;2024-01-25T17:24:04;38.05;;;24.00;;
68225;SDS011;55045;49.410;11.030;2024-01-25T17:27:08;55.05;;;34.55;;
68225;SDS011;55045;49.410;11.030;2024-01-25T17:30:14;70.50;;;36.13;;
68225;SDS011;55045;49.410;11.030;2024-01-25T17:33:20;59.30;;;31.30;;
68225;SDS011;55045;49.410;11.030;2024-01-25T17:36:25;47.22;;;30.10;;
68225;SDS011;55045;49.410;11.030;2024-01-25T17:39:29;51.25;;;30.80;;
68225;SDS011;55045;49.410;11.030;2024-01-25T17:42:34;44.40;;;29.17;;
68225;SDS011;55045;49.410;11.030;2024-01-25T17:45:40;39.90;;;27.60;;
68225;SDS011;55045;49.410;11.030;2024-01-25T17:48:44;42.10;;;25.83;;
68225;SDS011;55045;49.410;11.030;2024-01-25T17:51:49;32.47;;;23.05;;
68225;SDS011;55045;49.410;11.030;2024-01-25T17:54:53;35.65;;;21.58;;
68225;SDS011;55045;49.410;11.030;2024-01-25T17:57:57;46.33;;;24.38;;
68225;SDS011;55045;49.410;11.030;2024-01-25T18:01:01;36.17;;;23.83;;
68225;SDS011;55045;49.410;11.030;2024-01-25T18:04:05;42.88;;;25.08;;
68225;SDS011;55045;49.410;11.030;2024-01-25T18:07:10;50.55;;;28.80;;
68225;SDS011;55045;49.410;11.030;2024-01-25T18:10:14;43.42;;;29.42;;
68225;SDS011;55045;49.410;11.030;2024-01-25T18:13:18;49.72;;;30.10;;
68225;SDS011;55045;49.410;11.030;2024-01-25T18:16:23;41.17;;;30.92;;
68225;SDS011;55045;49.410;11.030;2024-01-25T18:19:27;51.20;;;31.60;;
68225;SDS011;55045;49.410;11.030;2024-01-25T18:22:35;50.30;;;31.50;;
68225;SDS011;55045;49.410;11.030;2024-01-25T18:25:40;53.42;;;35.63;;
68225;SDS011;55045;49.410;11.030;2024-01-25T18:28:44;46.90;;;30.90;;
68225;SDS011;55045;49.410;11.030;2024-01-25T18:31:48;35.42;;;24.27;;
68225;SDS011;55045;49.410;11.030;2024-01-25T18:34:52;49.10;;;31.00;;
68225;SDS011;55045;49.410;11.030;2024-01-25T18:37:57;62.53;;;30.65;;
68225;SDS011;55045;49.410;11.030;2024-01-25T18:41:01;50.58;;;31.20;;
68225;SDS011;55045;49.410;11.030;2024-01-25T18:44:08;49.75;;;31.63;;
68225;SDS011;55045;49.410;11.030;2024-01-25T18:47:12;46.00;;;29.58;;
68225;SDS011;55045;49.410;11.030;2024-01-25T18:50:16;53.83;;;30.77;;
68225;SDS011;55045;49.410;11.030;2024-01-25T18:53:22;53.13;;;29.92;;
68225;SDS011;55045;49.410;11.030;2024-01-25T18:56:25;49.35;;;30.45;;
68225;SDS011;55045;49.410;11.030;2024-01-25T18:59:31;46.28;;;31.90;;